Latest Coastal Weather Observations for Rottnest Island

IDW60701

Issued at 11:42 pm WST Saturday 6 February 2016 (issued every 10 minutes, with the page automatically refreshed every 10 minutes)

About coastal observations | Map of coastal stations | Coastal observations for WA | Marine services | Other Formats
Station Details ID: 009193 Name: ROTTNEST ISLAND Lat: -32.01 Lon: 115.50 Height: 43.1 m
Data from the previous 72 hours. | See also: Recent months at Rottnest Island
Date/Time
WST
Temp

°C
Wind Pressure Rain
since 9am
mm
Weather Cloud Vis
km
Sea
Height
m
Swell
Dir
 
Speed
knots
Gust
knots
hPa Trend Height
m
Period
s
Dir
06/11:30pm 21.7 S 17 19 1014.2 - 0.0 - - - - - - -
06/11:00pm 21.7 S 19 24 1014.5 - 0.0 - - - - - - -
06/10:30pm 21.7 S 15 20 1014.9 - 0.0 - - - - - - -
06/10:00pm 21.8 S 15 20 1014.8 - 0.0 - - - - - - -
06/09:30pm 21.9 S 17 21 1014.9 - 0.0 - - - - - - -
06/09:00pm 22.0 S 17 22 1014.7 - 0.0 - - - - - - -
06/08:30pm 22.0 S 18 23 1014.5 - 0.0 - - - - - - -
06/08:00pm 22.0 SSW 18 23 1014.3 - 0.0 - - - - - - -
06/07:30pm 21.9 S 19 24 1014.2 - 0.0 - - - - - - -
06/07:00pm 22.0 SSW 18 23 1013.8 - 0.0 - - - - - - -
06/06:30pm 22.3 SSW 19 25 1013.4 - 0.0 - - - - - - -
06/06:00pm 22.6 SSW 21 25 1013.3 - 0.0 - - - - - - -
06/05:30pm 23.3 SSW 18 25 1013.4 - 0.0 - - - - - - -
06/05:00pm 23.3 SSW 19 24 1013.3 - 0.0 - - - - - - -
06/04:30pm 23.6 SSW 19 23 1013.4 - 0.0 - - - - - - -
06/04:00pm 23.9 SSW 19 23 1013.7 - 0.0 - - - - - - -
06/03:30pm 24.1 SSW 20 24 1013.8 - 0.0 - - - - - - -
06/03:00pm 23.7 SSW 21 25 1013.9 - 0.0 - - - - - - -
06/02:30pm 24.3 SSW 20 23 1014.2 - 0.0 - - - - - - -
06/02:00pm 23.8 SSW 21 25 1014.3 - 0.0 - - - - - - -
06/01:30pm 23.8 SSW 20 23 1014.3 - 0.0 - - - - - - -
06/01:00pm 23.5 S 19 22 1014.7 - 0.0 - - - - - - -
06/12:30pm 23.5 SSW 20 23 1014.7 - 0.0 - - - - - - -
06/12:00pm 24.0 SSW 18 22 1015.1 - 0.0 - - - - - - -
06/11:30am 23.7 SSW 15 18 1015.1 - 0.0 - - - - - - -
06/11:00am 23.1 S 13 15 1015.4 - 0.0 - - - - - - -
06/10:30am 23.4 S 15 17 1015.4 - 0.0 - - - - - - -
06/10:00am 23.2 S 17 19 1015.6 - 0.0 - - - - - - -
06/09:30am 23.2 S 19 21 1015.6 - 0.0 - - - - - - -
06/09:00am 22.7 S 16 18 1015.6 - 0.0 - - - - - - -
06/08:30am 23.4 SSE 14 16 1015.3 - 0.0 - - - - - - -
06/08:00am 22.6 SSE 14 17 1015.1 - 0.0 - - - - - - -
06/07:30am 22.1 S 15 17 1015.1 - 0.0 - - - - - - -
06/07:00am 21.7 SSE 15 19 1014.8 - 0.0 - - - - - - -
06/06:30am 21.2 SSE 15 19 1014.5 - 0.0 - - - - - - -
06/06:00am 20.6 S 19 23 1014.0 - 0.0 - - - - - - -
06/05:30am 20.9 S 18 21 1013.6 - 0.0 - - - - - - -
06/05:00am 20.8 S 19 23 1013.5 - 0.0 - - - - - - -
06/04:30am 20.9 S 20 24 1013.3 - 0.0 - - - - - - -
06/04:00am 21.1 S 19 24 1013.2 - 0.0 - - - - - - -
06/03:30am 21.2 S 19 24 1013.1 - 0.0 - - - - - - -
06/03:00am 21.2 S 17 23 1013.1 - 0.0 - - - - - - -
06/02:30am 21.4 S 16 20 1013.1 - 0.0 - - - - - - -
06/02:00am 21.6 S 15 20 1013.2 - 0.0 - - - - - - -
06/01:30am 22.1 S 14 17 1013.1 - 0.0 - - - - - - -
06/01:00am 22.4 S 17 19 1013.0 - 0.0 - - - - - - -
06/12:30am 22.2 S 18 21 1013.1 - 0.0 - - - - - - -
06/12:00am 22.1 S 17 21 1013.5 - 0.0 - - - - - - -
 
Date/Time
WST
Temp

°C
Wind Pressure Rain
since 9am
mm
Weather Cloud Vis
km
Sea
Height
m
Swell
Dir
 
Speed
knots
Gust
knots
hPa Trend Height
m
Period
s
Dir
05/11:30pm 22.1 S 17 21 1013.8 - 0.0 - - - - - - -
05/11:00pm 22.1 S 18 21 1013.8 - 0.0 - - - - - - -
05/10:30pm 21.9 S 17 20 1014.0 - 0.0 - - - - - - -
05/10:00pm 21.7 S 15 19 1014.1 - 0.0 - - - - - - -
05/09:30pm 21.9 S 17 21 1014.1 - 0.0 - - - - - - -
05/09:00pm 22.0 S 15 18 1013.8 - 0.0 - - - - - - -
05/08:30pm 21.8 S 14 17 1013.6 - 0.0 - - - - - - -
05/08:00pm 22.0 S 14 18 1013.5 - 0.0 - - - - - - -
05/07:30pm 22.0 S 13 15 1013.3 - 0.0 - - - - - - -
05/07:00pm 22.4 S 15 19 1013.0 - 0.0 - - - - - - -
05/06:30pm 22.9 S 17 21 1012.9 - 0.0 - - - - - - -
05/06:00pm 23.2 S 17 22 1012.8 - 0.0 - - - - - - -
05/05:30pm 23.7 SSW 17 20 1012.8 - 0.0 - - - - - - -
05/05:00pm 23.8 SSW 16 20 1012.6 - 0.0 - - - - - - -
05/04:30pm 24.4 SSW 17 21 1012.6 - 0.0 - - - - - - -
05/04:00pm 25.1 SSW 15 18 1012.8 - 0.0 - - - - - - -
05/03:30pm 25.9 SW 15 19 1012.8 - 0.0 - - - - - - -
05/03:00pm 27.9 SW 14 17 1013.0 - 0.0 - - - - - - -
05/02:30pm 29.5 SW 13 19 1013.4 - 0.0 - - - - - - -
05/02:00pm 27.0 SW 17 22 1013.6 - 0.0 - - - - - - -
05/01:30pm 26.3 SW 19 23 1014.0 - 0.0 - - - - - - -
05/01:00pm 28.5 WSW 16 20 1014.0 - 0.0 - - - - - - -
05/12:30pm 31.9 NNW 8 11 1013.8 - 0.0 - - - - - - -
05/12:00pm 31.5 N 9 11 1014.0 - 0.0 - - - - - - -
05/11:30am 32.0 N 9 13 1014.3 - 0.0 - - - - - - -
05/11:00am 31.0 NE 9 11 1014.4 - 0.0 - - - - - - -
05/10:30am 29.7 NNE 11 13 1014.7 - 0.0 - - - - - - -
05/10:00am 28.6 NNE 12 15 1014.7 - 0.0 - - - - - - -
05/09:30am 28.0 NE 11 14 1014.7 - 0.0 - - - - - - -
05/09:00am 26.7 NE 11 15 1014.8 - 0.0 - - - - - - -
05/08:30am 25.9 NE 11 14 1014.8 - 0.0 - - - - - - -
05/08:00am 25.2 NE 12 15 1014.7 - 0.0 - - - - - - -
05/07:30am 24.5 NE 9 12 1015.0 - 0.0 - - - - - - -
05/07:00am 23.5 NE 9 11 1014.9 - 0.0 - - - - - - -
05/06:30am 22.6 NE 10 11 1014.6 - 0.0 - - - - - - -
05/06:00am 22.3 ENE 11 12 1014.4 - 0.0 - - - - - - -
05/05:30am 21.6 ENE 10 11 1014.1 - 0.0 - - - - - - -
05/05:00am 21.6 E 8 9 1013.8 - 0.0 - - - - - - -
05/04:30am 21.5 E 8 9 1013.5 - 0.0 - - - - - - -
05/04:00am 21.1 E 7 9 1013.3 - 0.0 - - - - - - -
05/03:30am 21.1 SE 9 10 1013.5 - 0.0 - - - - - - -
05/03:00am 21.2 SE 9 9 1013.5 - 0.0 - - - - - - -
05/02:30am 21.1 SSE 9 11 1013.7 - 0.0 - - - - - - -
05/02:00am 21.4 SSE 9 10 1013.8 - 0.0 - - - - - - -
05/01:30am 21.4 SSE 10 11 1014.0 - 0.0 - - - - - - -
05/01:00am 21.4 SSE 10 12 1014.4 - 0.0 - - - - - - -
05/12:30am 21.5 SSE 10 12 1014.8 - 0.0 - - - - - - -
05/12:00am 22.1 SSE 10 11 1014.8 - 0.0 - - - - - - -
 
Date/Time
WST
Temp

°C
Wind Pressure Rain
since 9am
mm
Weather Cloud Vis
km
Sea
Height
m
Swell
Dir
 
Speed
knots
Gust
knots
hPa Trend Height
m
Period
s
Dir
04/11:30pm 22.1 SSE 9 12 1015.1 - 0.0 - - - - - - -
04/11:00pm 22.3 SSE 11 13 1015.3 - 0.0 - - - - - - -
04/10:30pm 22.5 SSE 13 16 1015.4 - 0.0 - - - - - - -
04/10:00pm 22.2 SSE 12 15 1015.8 - 0.0 - - - - - - -
04/09:30pm 22.2 SSE 13 16 1015.6 - 0.0 - - - - - - -
04/09:00pm 22.3 SSE 13 15 1015.5 - 0.0 - - - - - - -
04/08:30pm 22.6 SSE 14 17 1015.4 - 0.0 - - - - - - -
04/08:00pm 22.7 SSE 15 17 1015.1 - 0.0 - - - - - - -
04/07:30pm 22.8 S 16 19 1014.9 - 0.0 - - - - - - -
04/07:00pm 23.3 S 18 21 1014.6 - 0.0 - - - - - - -
04/06:30pm 23.9 S 19 22 1014.3 - 0.0 - - - - - - -
04/06:00pm 24.6 S 19 23 1014.1 - 0.0 - - - - - - -
04/05:30pm 25.1 S 18 22 1014.1 - 0.0 - - - - - - -
04/05:00pm 25.8 SSW 16 22 1014.2 - 0.0 - - - - - - -
04/04:30pm 26.9 SSW 17 20 1014.4 - 0.0 - - - - - - -
04/04:00pm 27.4 SSW 15 19 1014.6 - 0.0 - - - - - - -
04/03:30pm 28.5 SW 14 16 1014.8 - 0.0 - - - - - - -
04/03:00pm 30.0 SW 12 14 1015.1 - 0.0 - - - - - - -
04/02:30pm 29.4 SSW 11 13 1015.5 - 0.0 - - - - - - -
04/02:00pm 29.2 SSW 9 13 1015.9 - 0.0 - - - - - - -
04/01:30pm 30.0 S 7 11 1016.4 - 0.0 - - - - - - -
04/01:00pm 31.2 SSE 6 9 1016.8 - 0.0 - - - - - - -
04/12:30pm 30.7 NE 7 12 1017.1 - 0.0 - - - - - - -
04/12:00pm 30.3 ENE 9 14 1017.3 - 0.0 - - - - - - -
04/11:30am 28.3 ENE 12 15 1017.7 - 0.0 - - - - - - -
04/11:00am 27.4 ENE 11 15 1018.0 - 0.0 - - - - - - -
04/10:30am 27.2 ENE 12 16 1018.3 - 0.0 - - - - - - -
04/10:00am 25.3 NE 12 17 1018.5 - 0.0 - - - - - - -
04/09:30am 24.5 ENE 13 17 1018.7 - 0.0 - - - - - - -
04/09:00am 23.1 ENE 15 19 1018.9 - 0.0 - - - - - - -
04/08:30am 22.2 ENE 14 19 1019.1 - 0.0 - - - - - - -
04/08:00am 21.9 ENE 16 22 1019.1 - 0.0 - - - - - - -
04/07:30am 21.4 ENE 16 24 1018.8 - 0.0 - - - - - - -
04/07:16am 21.3 ENE 15 25 1018.7 - 0.0 - - - - - - -
04/07:00am 21.2 ENE 15 22 1018.7 - 0.0 - - - - - - -
04/06:30am 20.4 E 13 19 1018.4 - 0.0 - - - - - - -
04/06:00am 19.8 E 11 15 1018.3 - 0.0 - - - - - - -
04/05:30am 19.9 E 11 15 1018.3 - 0.0 - - - - - - -
04/05:00am 20.4 E 13 18 1017.9 - 0.0 - - - - - - -
04/04:30am 20.4 E 11 16 1017.8 - 0.0 - - - - - - -
04/04:00am 20.7 E 12 18 1017.5 - 0.0 - - - - - - -
04/03:30am 20.3 E 10 13 1017.5 - 0.0 - - - - - - -
04/03:00am 20.9 E 9 13 1017.5 - 0.0 - - - - - - -
04/02:30am 20.5 ESE 9 10 1017.5 - 0.0 - - - - - - -
04/02:00am 20.3 ESE 8 10 1017.5 - 0.0 - - - - - - -
04/01:30am 20.0 SE 7 8 1017.6 - 0.0 - - - - - - -
04/01:00am 20.3 SE 10 11 1017.6 - 0.0 - - - - - - -
04/12:30am 20.6 SSE 10 12 1017.8 - 0.0 - - - - - - -
04/12:00am 20.5 SSE 10 11 1017.9 - 0.0 - - - - - - -

Other Formats:

Comma delimited format used in spreadsheet applications
http://www.bom.gov.au/fwo/IDW60701/IDW60701.94602.axf

JavaScript Object Notation format (JSON) in row-major order
http://www.bom.gov.au/fwo/IDW60701/IDW60701.94602.json